createdAt,value
2017-02-09T00:00:39.840Z,42.39
2017-02-09T00:01:49.363Z,42.1
2017-02-09T00:02:58.891Z,42.39
2017-02-09T00:04:09.159Z,42.3
2017-02-09T00:05:19.405Z,42.39
2017-02-09T00:06:28.941Z,42.39
2017-02-09T00:07:38.821Z,42.3
2017-02-09T00:08:49.075Z,42.3
2017-02-09T00:09:58.599Z,42.3
2017-02-09T00:11:07.733Z,42.49
2017-02-09T00:12:17.651Z,42.39
2017-02-09T00:13:27.946Z,42.3
2017-02-09T00:14:38.625Z,42.39
2017-02-09T00:15:47.733Z,42.39
2017-02-09T00:16:57.327Z,42.49
2017-02-09T00:18:07.244Z,42.39
2017-02-09T00:19:17.153Z,42.39
2017-02-09T00:20:26.673Z,41.91
2017-02-09T00:21:36.175Z,42.3
2017-02-09T00:22:46.042Z,42.27
2017-02-09T00:23:56.483Z,41.89
2017-02-09T00:25:05.630Z,42.39
2017-02-09T00:26:15.155Z,42.37
2017-02-09T00:27:25.066Z,42.18
2017-02-09T00:28:34.206Z,42.37
2017-02-09T00:29:43.728Z,42.27
2017-02-09T00:30:53.452Z,42.3
2017-02-09T00:32:02.979Z,41.82
2017-02-09T00:33:12.881Z,42.39
2017-02-09T00:34:22.411Z,42.39
2017-02-09T00:35:31.183Z,42.37
2017-02-09T00:36:40.712Z,42.1
2017-02-09T00:37:51.239Z,42.1
2017-02-09T00:39:00.337Z,41.91
2017-02-09T00:40:09.862Z,42.2
2017-02-09T00:41:20.162Z,42.27
2017-02-09T00:42:30.463Z,42.3
2017-02-09T00:43:41.147Z,42.08
2017-02-09T00:44:51.082Z,42.08
2017-02-09T00:46:00.182Z,42.1
2017-02-09T00:47:09.707Z,41.79
2017-02-09T00:48:19.614Z,42.18
2017-02-09T00:49:30.306Z,41.79
2017-02-09T00:50:39.817Z,41.89
2017-02-09T00:51:49.700Z,41.89
2017-02-09T00:53:00.310Z,42.18
2017-02-09T00:54:09.410Z,42.18
2017-02-09T00:55:19.711Z,41.89
2017-02-09T00:56:29.622Z,41.89
2017-02-09T00:57:39.503Z,41.89
2017-02-09T00:58:49.379Z,41.79
2017-02-09T00:59:59.673Z,41.89
2017-02-09T01:01:09.164Z,41.7
2017-02-09T01:02:19.031Z,41.6
2017-02-09T01:03:28.578Z,41.79
2017-02-09T01:04:38.448Z,41.79
2017-02-09T01:05:48.736Z,41.6
2017-02-09T01:06:58.228Z,41.41
2017-02-09T01:08:07.302Z,41.7
2017-02-09T01:09:16.782Z,41.6
2017-02-09T01:10:26.318Z,41.7
2017-02-09T01:11:37.003Z,41.5
2017-02-09T01:12:47.295Z,41.5
2017-02-09T01:13:57.974Z,41.5
2017-02-09T01:15:08.630Z,41.5
2017-02-09T01:16:18.892Z,41.31
2017-02-09T01:17:28.418Z,41.6
2017-02-09T01:18:39.109Z,41.41
2017-02-09T01:19:49.025Z,41.41
2017-02-09T01:20:58.543Z,41.41
2017-02-09T01:22:08.838Z,41.41
2017-02-09T01:23:17.976Z,40.93
2017-02-09T01:24:27.455Z,40.93
2017-02-09T01:25:36.584Z,41.02
2017-02-09T01:26:45.720Z,41.22
2017-02-09T01:27:55.217Z,41.02
2017-02-09T01:29:04.746Z,41.02
2017-02-09T01:30:14.658Z,40.83
2017-02-09T01:31:24.570Z,41.31
2017-02-09T01:32:34.875Z,40.83
2017-02-09T01:33:44.783Z,41.12
2017-02-09T01:34:54.696Z,41.12
2017-02-09T01:36:04.988Z,41.6
2017-02-09T01:37:14.518Z,41.22
2017-02-09T01:38:24.424Z,41.22
2017-02-09T01:39:33.536Z,41.31
2017-02-09T01:40:43.400Z,41.31
2017-02-09T01:41:52.921Z,41.22
2017-02-09T01:43:02.829Z,41.02
2017-02-09T01:44:13.126Z,41.22
2017-02-09T01:45:23.779Z,41.12
2017-02-09T01:46:32.872Z,41.12
2017-02-09T01:47:42.759Z,41
2017-02-09T01:48:53.005Z,41.22
2017-02-09T01:50:02.913Z,41.31
2017-02-09T01:51:13.211Z,41.31
2017-02-09T01:52:23.118Z,41.22
2017-02-09T01:53:32.639Z,41.02
2017-02-09T01:54:42.940Z,41
2017-02-09T01:55:52.460Z,41.22
2017-02-09T01:57:02.758Z,41.31
2017-02-09T01:58:12.257Z,41.1
2017-02-09T01:59:22.897Z,41.12
2017-02-09T02:00:32.031Z,41.12
2017-02-09T02:01:42.327Z,41
2017-02-09T02:02:52.000Z,41.12
2017-02-09T02:04:01.886Z,41.02
2017-02-09T02:05:12.142Z,41.02
2017-02-09T02:06:21.278Z,41.1
2017-02-09T02:07:30.801Z,41.12
2017-02-09T02:08:39.948Z,41.2
2017-02-09T02:09:50.241Z,41.2
2017-02-09T02:10:59.766Z,41.02
2017-02-09T02:12:09.288Z,41.02
2017-02-09T02:13:18.423Z,41.1
2017-02-09T02:14:28.325Z,41.1
2017-02-09T02:15:38.243Z,41.2
2017-02-09T02:16:48.148Z,41
2017-02-09T02:17:58.053Z,41.12
2017-02-09T02:19:08.383Z,40.91
2017-02-09T02:20:17.135Z,41.02
2017-02-09T02:21:26.622Z,41.2
2017-02-09T02:22:37.302Z,41.1
2017-02-09T02:23:47.598Z,41.2
2017-02-09T02:24:57.118Z,41.1
2017-02-09T02:26:06.258Z,41
2017-02-09T02:27:16.143Z,41.1
2017-02-09T02:28:26.007Z,41.1
2017-02-09T02:29:36.307Z,41.1
2017-02-09T02:30:46.993Z,41.12
2017-02-09T02:31:57.103Z,41
2017-02-09T02:33:06.627Z,41.1
2017-02-09T02:34:16.922Z,41
2017-02-09T02:35:26.817Z,41.2
2017-02-09T02:36:36.764Z,41.2
2017-02-09T02:37:47.012Z,41.1
2017-02-09T02:38:56.791Z,41
2017-02-09T02:40:07.094Z,41.1
2017-02-09T02:41:17.006Z,41.2
2017-02-09T02:42:26.921Z,41.29
2017-02-09T02:43:36.415Z,41.2
2017-02-09T02:44:45.512Z,41.29
2017-02-09T02:45:55.033Z,41.2
2017-02-09T02:47:04.554Z,41.29
2017-02-09T02:48:14.459Z,41.2
2017-02-09T02:49:23.568Z,41.29
2017-02-09T02:50:33.405Z,41.2
2017-02-09T02:51:42.854Z,41.2
2017-02-09T02:52:52.717Z,41.1
2017-02-09T02:54:01.865Z,41.2
2017-02-09T02:55:11.750Z,41.1
2017-02-09T02:56:21.232Z,41.2
2017-02-09T02:57:31.727Z,41.29
2017-02-09T02:58:40.471Z,41.29
2017-02-09T02:59:51.154Z,41.2
2017-02-09T03:01:00.681Z,41.29
2017-02-09T03:02:10.585Z,41.2
2017-02-09T03:03:20.491Z,41.29
2017-02-09T03:04:29.982Z,41.2
2017-02-09T03:05:39.465Z,41.2
2017-02-09T03:06:48.580Z,41.2
2017-02-09T03:07:59.207Z,41.39
2017-02-09T03:09:09.074Z,41.2
2017-02-09T03:10:19.379Z,41.29
2017-02-09T03:11:29.302Z,41.2
2017-02-09T03:12:39.989Z,41.77
2017-02-09T03:13:50.332Z,41.1
2017-02-09T03:15:00.250Z,41.77
2017-02-09T03:16:10.163Z,41
2017-02-09T03:17:20.068Z,41.2
2017-02-09T03:18:29.621Z,41.1
2017-02-09T03:19:38.776Z,40.91
2017-02-09T03:20:48.666Z,41
2017-02-09T03:21:58.147Z,41
2017-02-09T03:23:08.443Z,41.1
2017-02-09T03:24:17.967Z,40.91
2017-02-09T03:25:27.869Z,41.1
2017-02-09T03:26:37.357Z,41
2017-02-09T03:27:47.212Z,40.91
2017-02-09T03:28:56.734Z,41.1
2017-02-09T03:30:06.644Z,40.91
2017-02-09T03:31:16.165Z,41
2017-02-09T03:32:26.423Z,40.91
2017-02-09T03:33:36.485Z,41.29
2017-02-09T03:34:46.774Z,41.29
2017-02-09T03:35:56.293Z,41.1
2017-02-09T03:37:05.813Z,41.39
2017-02-09T03:38:15.333Z,41.39
2017-02-09T03:39:24.849Z,41.2
2017-02-09T03:40:34.372Z,41.29
2017-02-09T03:41:45.021Z,41.39
2017-02-09T03:42:54.854Z,41.39
2017-02-09T03:44:04.693Z,41.39
2017-02-09T03:45:14.941Z,41.39
2017-02-09T03:46:24.847Z,41.77
2017-02-09T03:47:34.374Z,41.39
2017-02-09T03:48:44.281Z,41.29
2017-02-09T03:49:54.571Z,41.49
2017-02-09T03:51:04.482Z,41.39
2017-02-09T03:52:13.617Z,41.39
2017-02-09T03:53:23.925Z,41.49
2017-02-09T03:54:33.792Z,41.29
2017-02-09T03:55:43.687Z,41.58
2017-02-09T03:56:54.563Z,41.58
2017-02-09T03:58:05.239Z,41.49
2017-02-09T03:59:14.760Z,41.58
2017-02-09T04:00:24.669Z,41.58
2017-02-09T04:01:34.582Z,41.49
2017-02-09T04:02:44.485Z,41.58
2017-02-09T04:03:54.781Z,41.49
2017-02-09T04:05:05.082Z,41.58
2017-02-09T04:06:15.334Z,41.49
2017-02-09T04:07:24.466Z,41.39
2017-02-09T04:08:34.369Z,41.39
2017-02-09T04:09:45.038Z,41.29
2017-02-09T04:10:54.556Z,41.49
2017-02-09T04:12:04.074Z,41.67
2017-02-09T04:13:14.368Z,41.67
2017-02-09T04:14:24.248Z,41.58
2017-02-09T04:15:34.366Z,41.49
2017-02-09T04:16:43.483Z,41.49
2017-02-09T04:17:52.159Z,41.39
2017-02-09T04:19:01.249Z,41.49
2017-02-09T04:20:11.161Z,41.49
2017-02-09T04:21:20.270Z,41.66
2017-02-09T04:22:30.121Z,41.67
2017-02-09T04:23:39.956Z,41.37
2017-02-09T04:24:48.666Z,41.46
2017-02-09T04:25:57.793Z,41.77
2017-02-09T04:27:07.693Z,41.58
2017-02-09T04:28:16.824Z,41.49
2017-02-09T04:29:26.699Z,41.46
2017-02-09T04:30:36.565Z,41.58
2017-02-09T04:31:46.854Z,41.58
2017-02-09T04:32:57.146Z,41.46
2017-02-09T04:34:07.062Z,41.56
2017-02-09T04:35:16.163Z,41.66
2017-02-09T04:36:24.890Z,41.66
2017-02-09T04:37:34.796Z,41.37
2017-02-09T04:38:45.077Z,41.49
2017-02-09T04:39:54.978Z,41.46
2017-02-09T04:41:04.498Z,41.29
2017-02-09T04:42:14.017Z,41.46
2017-02-09T04:43:23.542Z,41.49
2017-02-09T04:44:33.460Z,41.87
2017-02-09T04:45:42.979Z,41.39
2017-02-09T04:46:53.653Z,41.39
2017-02-09T04:48:03.943Z,41.49
2017-02-09T04:49:14.237Z,41.46
2017-02-09T04:50:23.349Z,41.49
2017-02-09T04:51:33.604Z,41.1
2017-02-09T04:52:43.504Z,40.72
2017-02-09T04:53:53.786Z,40.91
2017-02-09T04:55:03.277Z,41.1
2017-02-09T04:56:12.774Z,41
2017-02-09T04:57:22.295Z,41
2017-02-09T04:58:32.197Z,41.1
2017-02-09T04:59:41.719Z,41
2017-02-09T05:00:51.235Z,41.1
2017-02-09T05:02:01.917Z,41.1
2017-02-09T05:03:11.441Z,41.1
2017-02-09T05:04:20.960Z,41.2
2017-02-09T05:05:30.482Z,41.29
2017-02-09T05:06:39.243Z,41.1
2017-02-09T05:07:49.148Z,41
2017-02-09T05:08:58.255Z,40.62
2017-02-09T05:10:08.510Z,40.72
2017-02-09T05:11:19.189Z,40.62
2017-02-09T05:12:28.717Z,40.72
2017-02-09T05:13:39.019Z,40.62
2017-02-09T05:14:49.310Z,40.52
2017-02-09T05:15:59.215Z,40.52
2017-02-09T05:17:09.092Z,40.52
2017-02-09T05:18:18.185Z,40.33
2017-02-09T05:19:28.866Z,40.33
2017-02-09T05:20:38.776Z,40.05
2017-02-09T05:21:48.659Z,40.33
2017-02-09T05:22:58.522Z,39.97
2017-02-09T05:24:08.813Z,40.25
2017-02-09T05:25:19.102Z,40.14
2017-02-09T05:26:29.389Z,40.05
2017-02-09T05:27:39.296Z,40.23
2017-02-09T05:28:49.197Z,40.14
2017-02-09T05:29:58.308Z,40.23
2017-02-09T05:31:08.171Z,40.14
2017-02-09T05:32:18.047Z,40.23
2017-02-09T05:33:28.292Z,40.25
2017-02-09T05:34:38.199Z,40.35
2017-02-09T05:35:48.116Z,40.45
2017-02-09T05:36:58.021Z,40.64
2017-02-09T05:38:08.695Z,40.55
2017-02-09T05:39:18.603Z,39.97
2017-02-09T05:40:28.892Z,40.16
2017-02-09T05:41:39.199Z,39.47
2017-02-09T05:42:49.112Z,39.49
2017-02-09T05:43:58.082Z,39.56
2017-02-09T05:45:08.327Z,40.14
2017-02-09T05:46:17.850Z,39.85
2017-02-09T05:47:27.370Z,39.66
2017-02-09T05:48:37.657Z,39.76
2017-02-09T05:49:47.564Z,39.47
2017-02-09T05:50:57.891Z,39.37
2017-02-09T05:52:07.797Z,39.49
2017-02-09T05:53:16.929Z,39.56
2017-02-09T05:54:27.223Z,39.76
2017-02-09T05:55:38.104Z,39.47
2017-02-09T05:56:48.008Z,39.87
2017-02-09T05:57:57.883Z,39.56
2017-02-09T05:59:08.126Z,39.76
2017-02-09T06:00:18.069Z,39.58
2017-02-09T06:01:27.980Z,39.47
2017-02-09T06:02:37.899Z,39.56
2017-02-09T06:03:47.813Z,39.66
2017-02-09T06:04:57.338Z,39.66
2017-02-09T06:06:06.084Z,39.58
2017-02-09T06:07:16.770Z,39.68
2017-02-09T06:08:26.680Z,39.49
2017-02-09T06:09:36.590Z,39.68
2017-02-09T06:10:46.114Z,39.58
2017-02-09T06:11:55.993Z,39.78
2017-02-09T06:13:06.241Z,39.49
2017-02-09T06:14:16.539Z,39.68
2017-02-09T06:15:26.449Z,39.49
2017-02-09T06:16:36.332Z,39.68
2017-02-09T06:17:46.192Z,40.06
2017-02-09T06:18:55.687Z,39.58
2017-02-09T06:20:05.550Z,39.68
2017-02-09T06:21:14.695Z,39.58
2017-02-09T06:22:24.219Z,39.68
2017-02-09T06:23:34.112Z,39.49
2017-02-09T06:24:44.017Z,39.68
2017-02-09T06:25:53.545Z,39.68
2017-02-09T06:27:03.850Z,39.49
2017-02-09T06:28:14.145Z,39.39
2017-02-09T06:29:23.670Z,39.58
2017-02-09T06:30:32.799Z,39.68
2017-02-09T06:31:42.302Z,39.39
2017-02-09T06:32:52.265Z,39.58
2017-02-09T06:34:01.796Z,39.39
2017-02-09T06:35:11.703Z,39.29
2017-02-09T06:36:21.226Z,39.29
2017-02-09T06:37:30.749Z,39.2
2017-02-09T06:38:39.891Z,39.22
2017-02-09T06:39:49.799Z,39.31
2017-02-09T06:41:00.075Z,39.12
2017-02-09T06:42:09.992Z,39.12
2017-02-09T06:43:19.896Z,39.12
2017-02-09T06:44:29.424Z,39.03
2017-02-09T06:45:38.910Z,39.22
2017-02-09T06:46:48.791Z,39.22
2017-02-09T06:47:58.743Z,39.03
2017-02-09T06:49:08.241Z,39.03
2017-02-09T06:50:18.490Z,39.12
2017-02-09T06:51:28.402Z,39.03
2017-02-09T06:52:38.316Z,39.12
2017-02-09T06:53:48.223Z,38.93
2017-02-09T06:54:58.485Z,39.12
2017-02-09T06:56:08.348Z,39.12
2017-02-09T06:57:17.482Z,39.03
2017-02-09T06:58:27.778Z,39.12
2017-02-09T06:59:37.686Z,39.03
2017-02-09T07:00:47.596Z,39.12
2017-02-09T07:01:57.120Z,39.03
2017-02-09T07:03:06.646Z,39.12
2017-02-09T07:04:16.980Z,39.22
2017-02-09T07:05:27.278Z,39.12
2017-02-09T07:06:35.997Z,38.84
2017-02-09T07:07:45.448Z,38.93
2017-02-09T07:08:55.857Z,38.84
2017-02-09T07:10:05.004Z,38.84
2017-02-09T07:11:14.530Z,38.93
2017-02-09T07:12:24.856Z,38.93
2017-02-09T07:13:34.756Z,39.03
2017-02-09T07:14:44.287Z,38.64
2017-02-09T07:15:54.196Z,38.54
2017-02-09T07:17:04.495Z,38.64
2017-02-09T07:18:14.796Z,38.74
2017-02-09T07:19:25.090Z,38.74
2017-02-09T07:20:34.580Z,38.74
2017-02-09T07:21:44.830Z,38.74
2017-02-09T07:22:55.090Z,38.74
2017-02-09T07:24:03.841Z,38.74
2017-02-09T07:25:12.977Z,38.45
2017-02-09T07:26:22.886Z,38.54
2017-02-09T07:27:32.798Z,38.84
2017-02-09T07:28:43.102Z,39.22
2017-02-09T07:29:52.622Z,39.22
2017-02-09T07:31:02.160Z,38.84
2017-02-09T07:32:12.447Z,38.93
2017-02-09T07:33:21.969Z,39.04
2017-02-09T07:34:31.485Z,38.84
2017-02-09T07:35:41.781Z,38.93
2017-02-09T07:36:51.305Z,38.84
2017-02-09T07:38:01.568Z,38.93
2017-02-09T07:39:11.848Z,38.74
2017-02-09T07:40:21.688Z,39.03
2017-02-09T07:41:32.004Z,39.04
2017-02-09T07:42:42.271Z,38.66
2017-02-09T07:43:51.774Z,38.66
2017-02-09T07:45:02.079Z,38.85
2017-02-09T07:46:12.344Z,38.76
2017-02-09T07:47:22.217Z,38.76
2017-02-09T07:48:31.735Z,38.76
2017-02-09T07:49:41.204Z,38.85
2017-02-09T07:50:50.292Z,38.66
2017-02-09T07:51:59.813Z,38.85
2017-02-09T07:53:09.715Z,38.66
2017-02-09T07:54:19.623Z,38.76
2017-02-09T07:55:29.532Z,38.56
2017-02-09T07:56:38.648Z,38.56
2017-02-09T07:57:48.914Z,38.56
2017-02-09T07:58:58.757Z,38.56
2017-02-09T08:00:09.005Z,38.66
2017-02-09T08:01:18.533Z,38.47
2017-02-09T08:02:28.442Z,38.56
2017-02-09T08:03:37.982Z,38.47
2017-02-09T08:04:47.507Z,38.66
2017-02-09T08:05:57.423Z,38.66
2017-02-09T08:07:07.330Z,38.47
2017-02-09T08:08:17.206Z,38.56
2017-02-09T08:09:27.116Z,38.37
2017-02-09T08:10:37.018Z,38.37
2017-02-09T08:11:46.917Z,38.37
2017-02-09T08:12:56.822Z,38.28
2017-02-09T08:14:07.071Z,38.09
2017-02-09T08:15:16.214Z,38.09
2017-02-09T08:16:25.739Z,38.09
2017-02-09T08:17:35.625Z,38.28
2017-02-09T08:18:45.104Z,37.89
2017-02-09T08:19:55.017Z,38.28
2017-02-09T08:21:04.564Z,38.28
2017-02-09T08:22:13.705Z,38.28
2017-02-09T08:23:23.229Z,38.28
2017-02-09T08:24:32.763Z,38.18
2017-02-09T08:25:43.265Z,38.09
2017-02-09T08:26:53.167Z,38.09
2017-02-09T08:28:01.916Z,38.28
2017-02-09T08:29:10.698Z,38.18
2017-02-09T08:30:20.190Z,37.89
2017-02-09T08:31:30.052Z,37.99
2017-02-09T08:32:39.187Z,37.99
2017-02-09T08:33:48.319Z,38.09
2017-02-09T08:34:58.227Z,37.79
2017-02-09T08:36:08.528Z,38.01
2017-02-09T08:37:18.447Z,37.99
2017-02-09T08:38:28.356Z,37.62
2017-02-09T08:39:39.011Z,38.01
2017-02-09T08:40:48.101Z,37.52
2017-02-09T08:41:56.822Z,37.91
2017-02-09T08:43:06.693Z,38.01
2017-02-09T08:44:15.778Z,38.01
2017-02-09T08:45:25.260Z,38.01
2017-02-09T08:46:35.184Z,38.01
2017-02-09T08:47:44.681Z,37.91
2017-02-09T08:48:54.543Z,38.1
2017-02-09T08:50:03.269Z,37.91
2017-02-09T08:51:12.364Z,38.1
2017-02-09T08:52:22.249Z,37.91
2017-02-09T08:53:31.709Z,37.81
2017-02-09T08:54:41.188Z,37.81
2017-02-09T08:55:50.717Z,37.52
2017-02-09T08:57:01.111Z,37.52
2017-02-09T08:58:10.637Z,37.43
2017-02-09T08:59:20.548Z,37.43
2017-02-09T09:00:29.691Z,37.04
2017-02-09T09:01:39.577Z,37.34
2017-02-09T09:02:49.802Z,37.64
2017-02-09T09:03:58.909Z,36.95
2017-02-09T09:05:08.828Z,37.06
2017-02-09T09:06:18.347Z,37.06
2017-02-09T09:07:27.481Z,37.06
2017-02-09T09:08:37.365Z,37.06
2017-02-09T09:09:46.849Z,37.06
2017-02-09T09:10:56.383Z,37.16
2017-02-09T09:12:06.263Z,36.29
2017-02-09T09:13:15.830Z,36.39
2017-02-09T09:14:25.342Z,36.58
2017-02-09T09:15:35.254Z,37.26
2017-02-09T09:16:45.156Z,37.26
2017-02-09T09:17:55.449Z,37.26
2017-02-09T09:19:05.352Z,37.06
2017-02-09T09:20:15.651Z,37.16
2017-02-09T09:21:25.915Z,37.06
2017-02-09T09:22:35.367Z,36.97
2017-02-09T09:23:44.115Z,37.06
2017-02-09T09:24:54.034Z,36.97
2017-02-09T09:26:03.562Z,37.06
2017-02-09T09:27:12.705Z,36.68
2017-02-09T09:28:22.223Z,36.49
2017-02-09T09:29:32.516Z,36.49
2017-02-09T09:30:41.269Z,36.49
2017-02-09T09:31:50.794Z,36.77
2017-02-09T09:33:00.306Z,36.39
2017-02-09T09:34:09.762Z,36.49
2017-02-09T09:35:19.250Z,36.39
2017-02-09T09:36:29.163Z,36.68
2017-02-09T09:37:38.306Z,36.39
2017-02-09T09:38:47.419Z,36.49
2017-02-09T09:39:56.546Z,36.77
2017-02-09T09:41:05.669Z,36.58
2017-02-09T09:42:15.150Z,36.39
2017-02-09T09:43:24.649Z,36.77
2017-02-09T09:44:34.515Z,36.49
2017-02-09T09:45:44.043Z,36.58
2017-02-09T09:46:54.340Z,36.68
2017-02-09T09:48:04.245Z,36.68
2017-02-09T09:49:14.159Z,36.39
2017-02-09T09:50:24.461Z,36.29
2017-02-09T09:51:33.988Z,36.31
2017-02-09T09:52:43.523Z,35.93
2017-02-09T09:53:53.432Z,35.83
2017-02-09T09:55:02.572Z,35.64
2017-02-09T09:56:11.687Z,35.64
2017-02-09T09:57:20.784Z,35.56
2017-02-09T09:58:30.313Z,35.36
2017-02-09T09:59:39.441Z,35.46
2017-02-09T10:00:48.581Z,35.64
2017-02-09T10:01:58.109Z,35.64
2017-02-09T10:03:08.405Z,35.44
2017-02-09T10:04:18.314Z,34.77
2017-02-09T10:05:28.604Z,34.98
2017-02-09T10:06:38.106Z,34.88
2017-02-09T10:07:47.972Z,34.13
2017-02-09T10:08:57.147Z,33.74
2017-02-09T10:10:07.059Z,33.47
2017-02-09T10:11:16.979Z,33.37
2017-02-09T10:12:26.505Z,33.18
2017-02-09T10:13:36.515Z,33.09
2017-02-09T10:14:46.819Z,32.62
2017-02-09T10:15:56.731Z,32.71
2017-02-09T10:17:06.998Z,33.28
2017-02-09T10:18:16.477Z,33.37
2017-02-09T10:19:25.588Z,33.28
2017-02-09T10:20:35.504Z,33.09
2017-02-09T10:21:45.001Z,33.09
2017-02-09T10:22:54.907Z,33.09
2017-02-09T10:24:04.814Z,33.28
2017-02-09T10:25:14.342Z,33.37
2017-02-09T10:26:23.479Z,33.66
2017-02-09T10:27:33.396Z,33.55
2017-02-09T10:28:42.529Z,33.37
2017-02-09T10:29:52.447Z,33.18
2017-02-09T10:31:01.971Z,32.99
2017-02-09T10:32:11.496Z,32.99
2017-02-09T10:33:21.406Z,33.18
2017-02-09T10:34:30.928Z,33.47
2017-02-09T10:35:40.061Z,33.37
2017-02-09T10:36:49.983Z,33.18
2017-02-09T10:37:59.560Z,32.6
2017-02-09T10:39:09.467Z,32.23
2017-02-09T10:40:19.759Z,32.14
2017-02-09T10:41:29.670Z,32.52
2017-02-09T10:42:38.789Z,32.81
2017-02-09T10:43:48.659Z,32.89
2017-02-09T10:44:58.959Z,33.09
2017-02-09T10:46:09.256Z,33.09
2017-02-09T10:47:18.788Z,33.57
2017-02-09T10:48:29.092Z,33.65
2017-02-09T10:49:38.614Z,33.74
2017-02-09T10:50:48.506Z,33.84
2017-02-09T10:51:59.117Z,33.94
2017-02-09T10:53:08.602Z,34.32
2017-02-09T10:54:18.902Z,34.52
2017-02-09T10:55:29.206Z,34.4
2017-02-09T10:56:39.515Z,34.69
2017-02-09T10:57:49.427Z,34.78
2017-02-09T10:58:58.917Z,34.69
2017-02-09T11:00:08.414Z,34.78
2017-02-09T11:01:18.717Z,34.98
2017-02-09T11:02:28.637Z,34.88
2017-02-09T11:03:38.174Z,34.59
2017-02-09T11:04:48.091Z,34.8
2017-02-09T11:05:58.394Z,34.42
2017-02-09T11:07:08.710Z,34.22
2017-02-09T11:08:18.983Z,34.61
2017-02-09T11:09:28.847Z,34.8
2017-02-09T11:10:39.149Z,34.8
2017-02-09T11:11:48.684Z,34.22
2017-02-09T11:12:57.978Z,34.03
2017-02-09T11:14:07.489Z,34.22
2017-02-09T11:15:17.358Z,34.7
2017-02-09T11:16:27.658Z,34.7
2017-02-09T11:17:37.951Z,34.8
2017-02-09T11:18:48.245Z,34.42
2017-02-09T11:19:58.538Z,34.7
2017-02-09T11:21:08.834Z,34.42
2017-02-09T11:22:18.363Z,35
2017-02-09T11:23:28.275Z,34.7
2017-02-09T11:24:38.183Z,34.61
2017-02-09T11:25:48.069Z,34.61
2017-02-09T11:26:57.552Z,34.61
2017-02-09T11:28:07.850Z,34.42
2017-02-09T11:29:16.990Z,34.52
2017-02-09T11:30:26.489Z,34.22
2017-02-09T11:31:35.591Z,34.52
2017-02-09T11:32:45.509Z,34.42
2017-02-09T11:33:55.031Z,34.42
2017-02-09T11:35:04.942Z,34.52
2017-02-09T11:36:14.097Z,34.42
2017-02-09T11:37:23.976Z,34.52
2017-02-09T11:38:33.080Z,34.13
2017-02-09T11:39:43.972Z,34.61
2017-02-09T11:40:54.666Z,34.52
2017-02-09T11:42:04.584Z,34.32
2017-02-09T11:43:14.110Z,34.22
2017-02-09T11:44:24.061Z,34.22
2017-02-09T11:45:33.999Z,34.24
2017-02-09T11:46:43.919Z,33.94
2017-02-09T11:47:54.224Z,34.14
2017-02-09T11:49:04.139Z,34.05
2017-02-09T11:50:13.281Z,34.24
2017-02-09T11:51:22.821Z,34.05
2017-02-09T11:52:31.967Z,33.95
2017-02-09T11:53:40.718Z,33.57
2017-02-09T11:54:49.863Z,33.76
2017-02-09T11:55:59.013Z,33.76
2017-02-09T11:57:09.303Z,33.57
2017-02-09T11:58:18.828Z,33.47
2017-02-09T11:59:27.562Z,33.29
2017-02-09T12:00:37.045Z,33.39
2017-02-09T12:01:46.165Z,33.29
2017-02-09T12:02:56.037Z,33.2
2017-02-09T12:04:05.564Z,33.29
2017-02-09T12:05:15.868Z,33.2
2017-02-09T12:06:25.783Z,33.2
2017-02-09T12:07:36.084Z,33.39
2017-02-09T12:08:46.002Z,33.39
2017-02-09T12:09:55.526Z,33.39
2017-02-09T12:11:05.047Z,33.39
2017-02-09T12:12:14.168Z,33.29
2017-02-09T12:13:23.632Z,33.29
2017-02-09T12:14:33.504Z,33.29
2017-02-09T12:15:43.398Z,33.39
2017-02-09T12:16:52.877Z,33.39
2017-02-09T12:18:02.022Z,33.29
2017-02-09T12:19:11.939Z,33.29
2017-02-09T12:20:21.858Z,33.39
2017-02-09T12:21:30.599Z,33.48
2017-02-09T12:22:39.741Z,33.58
2017-02-09T12:23:49.650Z,33.78
2017-02-09T12:24:58.893Z,33.78
2017-02-09T12:26:08.819Z,33.78
2017-02-09T12:27:17.969Z,33.78
2017-02-09T12:28:27.884Z,33.87
2017-02-09T12:29:37.029Z,33.78
2017-02-09T12:30:46.174Z,33.87
2017-02-09T12:31:56.085Z,33.78
2017-02-09T12:33:05.993Z,33.78
2017-02-09T12:34:15.518Z,33.87
2017-02-09T12:35:25.787Z,33.97
2017-02-09T12:36:35.657Z,33.97
2017-02-09T12:37:45.193Z,33.97
2017-02-09T12:38:54.718Z,33.97
2017-02-09T12:40:04.232Z,34.06
2017-02-09T12:41:13.329Z,33.87
2017-02-09T12:42:23.240Z,33.97
2017-02-09T12:43:33.923Z,34.06
2017-02-09T12:44:44.222Z,34.36
2017-02-09T12:45:53.340Z,34.45
2017-02-09T12:47:03.222Z,34.16
2017-02-09T12:48:12.373Z,34.16
2017-02-09T12:49:21.904Z,34.36
2017-02-09T12:50:31.432Z,34.16
2017-02-09T12:51:41.733Z,34.06
2017-02-09T12:52:50.873Z,34.55
2017-02-09T12:54:00.011Z,34.36
2017-02-09T12:55:09.922Z,34.36
2017-02-09T12:56:19.828Z,34.36
2017-02-09T12:57:29.364Z,34.26
2017-02-09T12:58:40.069Z,34.45
2017-02-09T12:59:49.982Z,34.74
2017-02-09T13:00:59.124Z,34.74
2017-02-09T13:02:09.425Z,34.74
2017-02-09T13:03:19.329Z,34.45
2017-02-09T13:04:29.243Z,34.55
2017-02-09T13:05:39.548Z,34.55
2017-02-09T13:06:49.070Z,34.55
2017-02-09T13:07:58.604Z,34.55
2017-02-09T13:09:07.755Z,34.26
2017-02-09T13:10:17.836Z,34.26
2017-02-09T13:11:26.967Z,34.55
2017-02-09T13:12:36.848Z,34.74
2017-02-09T13:13:46.765Z,34.45
2017-02-09T13:14:56.272Z,34.74
2017-02-09T13:16:06.145Z,34.74
2017-02-09T13:17:16.447Z,34.64
2017-02-09T13:18:25.979Z,34.84
2017-02-09T13:19:35.892Z,35.02
2017-02-09T13:20:45.805Z,35.21
2017-02-09T13:21:54.946Z,35.11
2017-02-09T13:23:04.853Z,35.21
2017-02-09T13:24:14.376Z,35.3
2017-02-09T13:25:23.897Z,35.21
2017-02-09T13:26:33.420Z,34.92
2017-02-09T13:27:42.943Z,35.4
2017-02-09T13:28:52.469Z,35.4
2017-02-09T13:30:02.779Z,35.48
2017-02-09T13:31:12.275Z,35.48
2017-02-09T13:32:22.141Z,35.3
2017-02-09T13:33:31.279Z,35.3
2017-02-09T13:34:41.938Z,35.59
2017-02-09T13:35:51.804Z,35.28
2017-02-09T13:37:01.187Z,35.77
2017-02-09T13:38:10.323Z,35.59
2017-02-09T13:39:19.838Z,35.77
2017-02-09T13:40:30.135Z,35.77
2017-02-09T13:41:40.439Z,35.21
2017-02-09T13:42:49.582Z,35.4
2017-02-09T13:44:00.054Z,35.02
2017-02-09T13:45:09.541Z,34.92
2017-02-09T13:46:18.677Z,34.92
2017-02-09T13:47:28.212Z,34.92
2017-02-09T13:48:38.118Z,34.92
2017-02-09T13:49:48.029Z,35.02
2017-02-09T13:50:57.558Z,35.3
2017-02-09T13:52:07.093Z,35.4
2017-02-09T13:53:16.221Z,35.59
2017-02-09T13:54:25.344Z,35.4
2017-02-09T13:55:35.596Z,35.69
2017-02-09T13:56:44.750Z,35.78
2017-02-09T13:57:53.887Z,35.69
2017-02-09T13:59:04.194Z,35.88
2017-02-09T14:00:14.114Z,35.5
2017-02-09T14:01:24.412Z,35.3
2017-02-09T14:02:34.711Z,35.5
2017-02-09T14:03:44.652Z,35.69
2017-02-09T14:04:54.543Z,35.38
2017-02-09T14:06:05.156Z,35.5
2017-02-09T14:07:15.020Z,35.48
2017-02-09T14:08:24.927Z,35.86
2017-02-09T14:09:34.448Z,35.77
2017-02-09T14:10:43.587Z,36.06
2017-02-09T14:11:53.115Z,35.96
2017-02-09T14:13:03.411Z,35.86
2017-02-09T14:14:12.941Z,35.67
2017-02-09T14:15:22.468Z,35.77
2017-02-09T14:16:31.995Z,36.06
2017-02-09T14:17:41.913Z,35.77
2017-02-09T14:18:52.214Z,35.96
2017-02-09T14:20:01.814Z,35.86
2017-02-09T14:21:11.303Z,35.96
2017-02-09T14:22:21.594Z,36.25
2017-02-09T14:23:32.520Z,36.35
2017-02-09T14:24:42.825Z,36.06
2017-02-09T14:25:52.736Z,36.35
2017-02-09T14:27:02.578Z,36.25
2017-02-09T14:28:12.848Z,36.35
2017-02-09T14:29:22.336Z,36.44
2017-02-09T14:30:31.853Z,36.54
2017-02-09T14:31:42.151Z,36.44
2017-02-09T14:32:52.449Z,36.33
2017-02-09T14:34:02.416Z,36.63
2017-02-09T14:35:11.918Z,36.63
2017-02-09T14:36:21.401Z,36.71
2017-02-09T14:37:30.546Z,37.19
2017-02-09T14:38:40.431Z,37.1
2017-02-09T14:39:50.685Z,37.01
2017-02-09T14:41:00.603Z,37.19
2017-02-09T14:42:10.910Z,37.1
2017-02-09T14:43:20.427Z,36.91
2017-02-09T14:44:29.519Z,36.91
2017-02-09T14:45:39.823Z,37.19
2017-02-09T14:46:49.737Z,37.29
2017-02-09T14:47:59.522Z,37.19
2017-02-09T14:49:08.663Z,37.29
2017-02-09T14:50:18.184Z,37.1
2017-02-09T14:51:28.486Z,37.19
2017-02-09T14:52:38.404Z,37.39
2017-02-09T14:53:49.079Z,37.29
2017-02-09T14:54:58.991Z,37.19
2017-02-09T14:56:08.134Z,37.39
2017-02-09T14:57:17.659Z,37.19
2017-02-09T14:58:26.805Z,37.19
2017-02-09T14:59:35.949Z,37.19
2017-02-09T15:00:45.475Z,37.19
2017-02-09T15:01:55.384Z,37.19
2017-02-09T15:03:04.581Z,37.19
2017-02-09T15:04:13.742Z,37.1